Time;durP1;ratioP1;P1;durP2;ratioP2;P2;SDS_P1;SDS_P2;PMS_P1;PMS_P2;Temp;Humidity;BMP_temperature;BMP_pressure;BME280_temperature;BME280_humidity;BME280_pressure;Samples;Min_cycle;Max_cycle;Signal;HPM_P1;HPM_P2
2021/12/23 00:02:19;;;;;;;;;;;;;;;;;;5053234;28;19925;-68
2021/12/23 00:04:48;;;;;;;;;;;;;;;;;;5053812;28;19938;-69
2021/12/23 00:07:18;;;;;;;;;;;;;;;;;;5067450;28;20576;-68
2021/12/23 00:12:37;;;;;;;;;;;;;;;;;;5080217;28;19928;-68
2021/12/23 00:15:09;;;;;;;;;;;;;;;;;;5072937;28;20393;-68
2021/12/23 00:25:52;;;;;;;;;;;;;;;;;;5070385;28;20076;-68
2021/12/23 00:28:22;;;;;;;;;;;;;;;;;;5074064;28;20263;-68
2021/12/23 00:30:51;;;;;;;;;;;;;;;;;;5071960;28;19933;-68
2021/12/23 00:33:22;;;;;;;;;;;;;;;;;;5072216;28;19924;-68
2021/12/23 00:35:53;;;;;;;;;;;;;;;;;;5075406;28;19985;-68
2021/12/23 00:38:25;;;;;;;;;;;;;;;;;;5073754;28;19988;-68
2021/12/23 00:40:57;;;;;;;;;;;;;;;;;;5069300;28;19932;-68
2021/12/23 00:43:27;;;;;;;;;;;;;;;;;;5076607;28;20007;-68
2021/12/23 00:45:54;;;;;;;;;;;;;;;;;;5055124;28;19928;-68
2021/12/23 00:48:25;;;;;;;;;;;;;;;;;;5077628;28;19931;-68
2021/12/23 00:50:54;;;;;;;;;;;;;;;;;;5073772;28;19935;-68
2021/12/23 00:53:23;;;;;;;;;;;;;;;;;;5077928;28;19928;-68
2021/12/23 00:55:52;;;;;;;;;;;;;;;;;;5078003;28;19970;-68
2021/12/23 00:58:19;;;;;;;;;;;;;;;;;;5058085;28;19928;-68
2021/12/23 01:00:50;;;;;;;;;;;;;;;;;;5071816;28;20364;-68
2021/12/23 01:03:18;;;;;;;;;;;;;;;;;;5079916;28;19924;-68
2021/12/23 01:05:45;;;;;;;;;;;;;;;;;;5075297;28;19940;-68
2021/12/23 01:08:13;;;;;;;;;;;;;;;;;;5072087;28;20873;-67
2021/12/23 01:10:44;;;;;;;;;;;;;;;;;;5074635;28;19928;-67
2021/12/23 01:13:14;;;;;;;;;;;;;;;;;;5076714;28;20396;-67
2021/12/23 01:18:32;;;;;;;;;;;;;;;;;;5076702;28;20007;-68
2021/12/23 01:21:14;;;;;;;;;;;;;;;;;;5069891;28;19925;-68
2021/12/23 01:23:44;;;;;;;;;;;;;;;;;;5079582;28;20599;-68
2021/12/23 01:26:20;;;;;;;;;;;;;;;;;;5077944;28;19933;-68
2021/12/23 01:28:48;;;;;;;;;;;;;;;;;;5078387;28;19989;-68
2021/12/23 01:31:16;;;;;;;;;;;;;;;;;;5078981;28;19927;-68
2021/12/23 01:33:45;;;;;;;;;;;;;;;;;;5076579;28;19928;-68
2021/12/23 01:36:15;;;;;;;;;;;;;;;;;;5080297;28;19931;-68
2021/12/23 01:38:42;;;;;;;;;;;;;;;;;;5080842;28;19932;-68
2021/12/23 01:41:12;;;;;;;;;;;;;;;;;;5079523;28;19943;-68
2021/12/23 01:43:43;;;;;;;;;;;;;;;;;;5081173;28;20416;-68
2021/12/23 01:46:15;;;;;;;;;;;;;;;;;;5056955;28;19951;-68
2021/12/23 01:48:46;;;;;;;;;;;;;;;;;;5076907;28;19959;-68
2021/12/23 01:51:15;;;;;;;;;;;;;;;;;;5081100;28;19980;-68
2021/12/23 01:53:48;;;;;;;;;;;;;;;;;;5077099;28;19928;-68
2021/12/23 01:56:20;;;;;;;;;;;;;;;;;;5073208;28;19928;-68
2021/12/23 01:58:50;;;;;;;;;;;;;;;;;;5079309;28;19931;-68
2021/12/23 02:01:18;;;;;;;;;;;;;;;;;;5083707;28;19976;-68
2021/12/23 02:03:50;;;;;;;;;;;;;;;;;;5077593;28;20467;-68
2021/12/23 02:06:18;;;;;;;;;;;;;;;;;;5079923;28;19924;-68
2021/12/23 02:08:45;;;;;;;;;;;;;;;;;;5072927;28;19932;-68
2021/12/23 02:11:15;;;;;;;;;;;;;;;;;;5080148;28;19932;-67
2021/12/23 02:13:50;;;;;;;;;;;;;;;;;;5064787;28;19929;-68
2021/12/23 02:16:19;;;;;;;;;;;;;;;;;;5078412;28;19924;-68
2021/12/23 02:18:46;;;;;;;;;;;;;;;;;;5060458;28;19961;-68
2021/12/23 02:21:14;;;;;;;;;;;;;;;;;;5075382;28;19924;-67
2021/12/23 02:23:42;;;;;;;;;;;;;;;;;;5076924;28;19960;-68
2021/12/23 02:26:13;;;;;;;;;;;;;;;;;;5071343;28;20365;-68
2021/12/23 02:28:42;;;;;;;;;;;;;;;;;;5076148;28;19955;-68
2021/12/23 02:31:10;;;;;;;;;;;;;;;;;;5077458;28;19939;-68
2021/12/23 02:33:38;;;;;;;;;;;;;;;;;;5076202;28;19932;-68
2021/12/23 02:36:05;;;;;;;;;;;;;;;;;;5079004;28;19928;-68
2021/12/23 02:38:35;;;;;;;;;;;;;;;;;;5081039;28;19932;-68
2021/12/23 02:41:03;;;;;;;;;;;;;;;;;;5081792;28;20450;-68
2021/12/23 02:43:36;;;;;;;;;;;;;;;;;;5080652;28;20421;-68
2021/12/23 02:46:06;;;;;;;;;;;;;;;;;;5078507;28;19923;-68
2021/12/23 02:48:34;;;;;;;;;;;;;;;;;;5078480;28;20661;-68
2021/12/23 02:51:03;;;;;;;;;;;;;;;;;;5072015;28;19924;-68
2021/12/23 02:53:31;;;;;;;;;;;;;;;;;;5076955;28;20365;-68
2021/12/23 02:56:00;;;;;;;;;;;;;;;;;;5069163;28;19925;-68
2021/12/23 02:58:33;;;;;;;;;;;;;;;;;;5073135;28;20313;-68
2021/12/23 03:01:02;;;;;;;;;;;;;;;;;;5079106;28;19924;-68
2021/12/23 03:03:35;;;;;;;;;;;;;;;;;;5076004;28;19943;-68
2021/12/23 03:06:05;;;;;;;;;;;;;;;;;;5075299;28;20391;-68
2021/12/23 03:08:34;;;;;;;;;;;;;;;;;;5071342;28;20504;-68
2021/12/23 03:11:03;;;;;;;;;;;;;;;;;;5077691;28;19928;-68
2021/12/23 03:13:31;;;;;;;;;;;;;;;;;;5060585;28;19969;-68
2021/12/23 03:16:00;;;;;;;;;;;;;;;;;;5074062;28;19993;-68
2021/12/23 03:18:30;;;;;;;;;;;;;;;;;;5077503;28;19967;-68
2021/12/23 03:20:57;;;;;;;;;;;;;;;;;;5074498;28;19925;-68
2021/12/23 03:23:29;;;;;;;;;;;;;;;;;;5078222;28;19935;-68
2021/12/23 03:26:00;;;;;;;;;;;;;;;;;;5076232;28;19932;-68
2021/12/23 03:28:30;;;;;;;;;;;;;;;;;;5083492;28;19938;-68
2021/12/23 03:30:59;;;;;;;;;;;;;;;;;;5073709;28;19952;-68
2021/12/23 03:33:32;;;;;;;;;;;;;;;;;;5074545;28;19993;-68
2021/12/23 03:36:01;;;;;;;;;;;;;;;;;;5073546;28;19993;-68
2021/12/23 03:38:28;;;;;;;;;;;;;;;;;;5079808;28;19928;-68
2021/12/23 03:40:56;;;;;;;;;;;;;;;;;;5071807;28;20354;-68
2021/12/23 03:43:23;;;;;;;;;;;;;;;;;;5080361;28;19925;-68
2021/12/23 03:45:51;;;;;;;;;;;;;;;;;;5073422;28;20300;-68
2021/12/23 03:48:18;;;;;;;;;;;;;;;;;;5078647;28;19969;-68
2021/12/23 03:50:47;;;;;;;;;;;;;;;;;;5079536;28;19928;-68
2021/12/23 03:53:17;;;;;;;;;;;;;;;;;;5076785;28;19932;-68
2021/12/23 03:55:45;;;;;;;;;;;;;;;;;;5076844;28;19938;-68
2021/12/23 03:58:15;;;;;;;;;;;;;;;;;;5075420;28;19924;-68
2021/12/23 04:00:46;;;;;;;;;;;;;;;;;;5077977;28;20004;-68
2021/12/23 04:03:16;;;;;;;;;;;;;;;;;;5078801;28;19928;-68
2021/12/23 04:05:45;;;;;;;;;;;;;;;;;;5075941;28;20399;-68
2021/12/23 04:08:13;;;;;;;;;;;;;;;;;;5071308;28;20019;-68
2021/12/23 04:10:43;;;;;;;;;;;;;;;;;;5077658;28;19928;-68
2021/12/23 04:13:12;;;;;;;;;;;;;;;;;;5074438;28;19928;-69
2021/12/23 04:15:42;;;;;;;;;;;;;;;;;;5076499;28;19943;-68
2021/12/23 04:18:12;;;;;;;;;;;;;;;;;;5081719;28;19924;-68
2021/12/23 04:20:53;;;;;;;;;;;;;;;;;;5073093;28;19934;-68
2021/12/23 04:23:22;;;;;;;;;;;;;;;;;;5073687;28;20293;-68
2021/12/23 04:25:50;;;;;;;;;;;;;;;;;;5076151;28;19969;-68
2021/12/23 04:28:23;;;;;;;;;;;;;;;;;;5075606;28;19969;-68
2021/12/23 04:30:52;;;;;;;;;;;;;;;;;;5070429;28;20038;-68
2021/12/23 04:33:22;;;;;;;;;;;;;;;;;;5073618;28;19997;-68
2021/12/23 04:35:49;;;;;;;;;;;;;;;;;;5074897;28;19928;-68
2021/12/23 04:38:17;;;;;;;;;;;;;;;;;;5072488;28;20449;-68
2021/12/23 04:40:44;;;;;;;;;;;;;;;;;;5057165;28;19928;-68
2021/12/23 04:43:14;;;;;;;;;;;;;;;;;;5076603;28;20388;-68
2021/12/23 04:45:42;;;;;;;;;;;;;;;;;;5075978;28;19936;-68
2021/12/23 04:48:09;;;;;;;;;;;;;;;;;;5073466;28;19928;-68
2021/12/23 04:50:38;;;;;;;;;;;;;;;;;;5080834;28;19935;-68
2021/12/23 04:53:07;;;;;;;;;;;;;;;;;;5073589;28;19929;-68
2021/12/23 04:55:34;;;;;;;;;;;;;;;;;;5077252;28;19981;-67
2021/12/23 04:58:04;;;;;;;;;;;;;;;;;;5073337;28;19924;-68
2021/12/23 05:00:32;;;;;;;;;;;;;;;;;;5082771;28;19924;-68
2021/12/23 05:03:02;;;;;;;;;;;;;;;;;;5080099;28;19928;-68
2021/12/23 05:05:30;;;;;;;;;;;;;;;;;;5078638;28;19935;-68
2021/12/23 05:08:02;;;;;;;;;;;;;;;;;;5075917;28;19928;-67
2021/12/23 05:10:31;;;;;;;;;;;;;;;;;;5080800;28;20386;-67
2021/12/23 05:13:03;;;;;;;;;;;;;;;;;;5076029;28;19929;-67
2021/12/23 05:15:37;;;;;;;;;;;;;;;;;;5057243;28;19928;-67
2021/12/23 05:18:07;;;;;;;;;;;;;;;;;;5058984;28;19980;-67
2021/12/23 05:20:37;;;;;;;;;;;;;;;;;;5076734;28;19967;-68
2021/12/23 05:23:04;;;;;;;;;;;;;;;;;;5080480;28;19934;-68
2021/12/23 05:25:32;;;;;;;;;;;;;;;;;;5078085;28;20014;-68
2021/12/23 05:28:01;;;;;;;;;;;;;;;;;;5076038;28;19928;-68
2021/12/23 05:30:31;;;;;;;;;;;;;;;;;;5079258;28;19946;-68
2021/12/23 05:33:01;;;;;;;;;;;;;;;;;;5062214;28;19925;-68
2021/12/23 05:35:28;;;;;;;;;;;;;;;;;;5076927;28;19930;-68
2021/12/23 05:38:01;;;;;;;;;;;;;;;;;;5078787;28;19955;-68
2021/12/23 05:40:29;;;;;;;;;;;;;;;;;;5074074;28;20505;-68
2021/12/23 05:43:00;;;;;;;;;;;;;;;;;;5080379;28;19928;-68
2021/12/23 05:45:28;;;;;;;;;;;;;;;;;;5060000;28;20653;-68
2021/12/23 05:47:57;;;;;;;;;;;;;;;;;;5074516;28;20346;-68
2021/12/23 05:50:26;;;;;;;;;;;;;;;;;;5076306;28;20055;-68
2021/12/23 05:52:53;;;;;;;;;;;;;;;;;;5062449;28;19977;-68
2021/12/23 05:55:23;;;;;;;;;;;;;;;;;;5075680;28;20311;-68
2021/12/23 05:58:01;;;;;;;;;;;;;;;;;;5077776;28;19924;-68
2021/12/23 06:00:47;;;;;;;;;;;;;;;;;;5076810;28;19932;-69
2021/12/23 06:03:17;;;;;;;;;;;;;;;;;;5056433;28;19967;-69
2021/12/23 06:05:46;;;;;;;;;;;;;;;;;;5078471;28;19928;-69
2021/12/23 06:08:16;;;;;;;;;;;;;;;;;;5070106;28;19943;-69
2021/12/23 06:10:46;;;;;;;;;;;;;;;;;;5074360;28;19944;-69
2021/12/23 06:13:14;;;;;;;;;;;;;;;;;;5077745;28;19924;-69
2021/12/23 06:15:44;;;;;;;;;;;;;;;;;;5076958;28;19932;-69
2021/12/23 06:18:15;;;;;;;;;;;;;;;;;;5079252;28;19932;-69
2021/12/23 06:20:45;;;;;;;;;;;;;;;;;;5080129;28;19931;-69
2021/12/23 06:23:17;;;;;;;;;;;;;;;;;;5078965;28;19932;-69
2021/12/23 06:25:46;;;;;;;;;;;;;;;;;;5079758;28;20094;-69
2021/12/23 06:28:14;;;;;;;;;;;;;;;;;;5081496;28;19930;-69
2021/12/23 06:30:44;;;;;;;;;;;;;;;;;;5074680;28;20396;-69
2021/12/23 06:33:18;;;;;;;;;;;;;;;;;;5081629;28;19928;-69
2021/12/23 06:35:55;;;;;;;;;;;;;;;;;;5071973;28;19932;-69
2021/12/23 06:38:25;;;;;;;;;;;;;;;;;;5080021;28;19924;-69
2021/12/23 06:40:53;;;;;;;;;;;;;;;;;;5076638;28;19943;-70
2021/12/23 06:43:22;;;;;;;;;;;;;;;;;;5080849;28;19924;-70
2021/12/23 06:45:52;;;;;;;;;;;;;;;;;;5074225;28;19925;-69
2021/12/23 06:48:20;;;;;;;;;;;;;;;;;;5072460;28;19936;-69
2021/12/23 06:50:56;;;;;;;;;;;;;;;;;;5077258;28;19955;-69
2021/12/23 06:53:27;;;;;;;;;;;;;;;;;;5076864;28;19939;-70
2021/12/23 06:55:55;;;;;;;;;;;;;;;;;;5082882;28;19984;-69
2021/12/23 06:58:26;;;;;;;;;;;;;;;;;;5078076;28;19928;-68
2021/12/23 07:00:55;;;;;;;;;;;;;;;;;;5079050;28;20760;-69
2021/12/23 07:03:33;;;;;;;;;;;;;;;;;;5076648;28;19927;-69
2021/12/23 07:06:06;;;;;;;;;;;;;;;;;;5072434;28;20336;-69
2021/12/23 07:08:55;;;;;;;;;;;;;;;;;;5077391;28;19932;-69
2021/12/23 07:11:23;;;;;;;;;;;;;;;;;;5074651;28;19924;-69
2021/12/23 07:13:56;;;;;;;;;;;;;;;;;;5076380;28;19932;-69
2021/12/23 07:16:26;;;;;;;;;;;;;;;;;;5076996;28;19928;-69
2021/12/23 07:18:55;;;;;;;;;;;;;;;;;;5079125;28;19939;-69
2021/12/23 07:21:25;;;;;;;;;;;;;;;;;;5077420;28;19928;-69
2021/12/23 07:23:56;;;;;;;;;;;;;;;;;;5074910;28;19939;-69
2021/12/23 07:26:27;;;;;;;;;;;;;;;;;;5078516;28;19942;-69
2021/12/23 07:29:00;;;;;;;;;;;;;;;;;;5079997;28;19932;-69
2021/12/23 07:31:28;;;;;;;;;;;;;;;;;;5089906;28;20011;-66
2021/12/23 07:33:57;;;;;;;;;;;;;;;;;;5070577;28;19928;-67
2021/12/23 07:36:28;;;;;;;;;;;;;;;;;;5090403;28;19928;-68
2021/12/23 07:39:01;;;;;;;;;;;;;;;;;;5079903;28;19931;-68
2021/12/23 07:41:52;;;;;;;;;;;;;;;;;;5079415;28;19943;-66
2021/12/23 07:44:35;;;;;;;;;;;;;;;;;;5076032;28;19928;-69
2021/12/23 07:47:14;;;;;;;;;;;;;;;;;;5068048;28;19939;-73
2021/12/23 07:49:45;;;;;;;;;;;;;;;;;;5078493;28;20001;-71
2021/12/23 07:52:15;;;;;;;;;;;;;;;;;;5074138;28;19928;-70
2021/12/23 07:54:47;;;;;;;;;;;;;;;;;;5072461;28;19934;-71
2021/12/23 07:57:18;;;;;;;;;;;;;;;;;;5061272;28;19924;-68
2021/12/23 07:59:49;;;;;;;;;;;;;;;;;;5068197;28;19929;-69
2021/12/23 08:02:21;;;;;;;;;;;;;;;;;;5067179;28;19939;-71
2021/12/23 08:04:51;;;;;;;;;;;;;;;;;;5077782;28;19924;-70
2021/12/23 08:07:21;;;;;;;;;;;;;;;;;;5070206;28;19936;-69
2021/12/23 08:09:48;;;;;;;;;;;;;;;;;;5059816;28;19973;-70
2021/12/23 08:12:21;;;;;;;;;;;;;;;;;;5053763;28;20001;-69
2021/12/23 08:14:52;;;;;;;;;;;;;;;;;;5058499;28;19932;-71
2021/12/23 08:17:39;;;;;;;;;;;;;;;;;;5052768;28;19924;-71
2021/12/23 08:20:08;;;;;;;;;;;;;;;;;;5057875;28;19924;-71
2021/12/23 08:22:39;;;;;;;;;;;;;;;;;;5047782;28;19940;-74
2021/12/23 08:25:10;;;;;;;;;;;;;;;;;;5058963;28;19924;-71
2021/12/23 08:27:37;;;;;;;;;;;;;;;;;;5052519;28;20006;-71
2021/12/23 08:30:09;;;;;;;;;;;;;;;;;;5052936;28;19936;-71
2021/12/23 08:32:37;;;;;;;;;;;;;;;;;;5068868;28;19950;-71
2021/12/23 08:35:09;;;;;;;;;;;;;;;;;;5054047;28;20052;-72
2021/12/23 08:37:48;;;;;;;;;;;;;;;;;;5057171;28;20008;-72
2021/12/23 08:40:18;;;;;;;;;;;;;;;;;;5058735;28;20021;-74
2021/12/23 08:42:46;;;;;;;;;;;;;;;;;;5060244;28;20450;-71
2021/12/23 08:45:18;;;;;;;;;;;;;;;;;;5060524;28;19932;-72
2021/12/23 08:47:51;;;;;;;;;;;;;;;;;;5074798;28;19967;-70
2021/12/23 08:50:18;;;;;;;;;;;;;;;;;;5079648;28;19943;-71
2021/12/23 08:52:51;;;;;;;;;;;;;;;;;;5071351;28;19935;-73
2021/12/23 08:55:22;;;;;;;;;;;;;;;;;;5068651;28;20274;-71
2021/12/23 08:57:55;;;;;;;;;;;;;;;;;;5066738;28;19968;-71
2021/12/23 09:00:26;;;;;;;;;;;;;;;;;;5064506;28;20016;-72
2021/12/23 09:02:57;;;;;;;;;;;;;;;;;;5081032;28;20444;-72
2021/12/23 09:05:24;;;;;;;;;;;;;;;;;;5081289;28;19932;-70
2021/12/23 09:07:55;;;;;;;;;;;;;;;;;;5078214;28;20250;-71
2021/12/23 09:10:25;;;;;;;;;;;;;;;;;;5077668;28;20373;-74
2021/12/23 09:12:57;;;;;;;;;;;;;;;;;;5075326;28;20018;-72
2021/12/23 09:15:28;;;;;;;;;;;;;;;;;;5078783;28;19927;-73
2021/12/23 09:17:57;;;;;;;;;;;;;;;;;;5062718;28;19924;-75
2021/12/23 09:20:29;;;;;;;;;;;;;;;;;;5077622;28;20345;-75
2021/12/23 09:23:06;;;;;;;;;;;;;;;;;;5075878;28;19936;-72
2021/12/23 09:25:37;;;;;;;;;;;;;;;;;;5076491;28;19936;-70
2021/12/23 09:28:27;;;;;;;;;;;;;;;;;;5076882;28;19936;-69
2021/12/23 09:33:44;;;;;;;;;;;;;;;;;;5080239;28;19932;-72
2021/12/23 09:36:13;;;;;;;;;;;;;;;;;;5054884;28;20157;-72
2021/12/23 09:38:42;;;;;;;;;;;;;;;;;;5074852;28;19931;-71
2021/12/23 09:41:11;;;;;;;;;;;;;;;;;;5079269;28;19925;-75
2021/12/23 09:43:41;;;;;;;;;;;;;;;;;;5082669;28;19943;-76
2021/12/23 09:46:11;;;;;;;;;;;;;;;;;;5074931;28;19943;-72
2021/12/23 09:48:43;;;;;;;;;;;;;;;;;;5073820;28;19924;-70
2021/12/23 09:51:15;;;;;;;;;;;;;;;;;;5077457;28;20408;-77
2021/12/23 09:53:45;;;;;;;;;;;;;;;;;;5079241;28;19924;-74
2021/12/23 09:56:19;;;;;;;;;;;;;;;;;;5075025;28;19940;-74
2021/12/23 09:58:49;;;;;;;;;;;;;;;;;;5066311;28;19939;-75
2021/12/23 10:01:32;;;;;;;;;;;;;;;;;;5077259;28;19924;-72
2021/12/23 10:04:00;;;;;;;;;;;;;;;;;;5025744;28;19932;-75
2021/12/23 10:06:28;;;;;;;;;;;;;;;;;;5075678;28;19924;-74
2021/12/23 10:08:58;;;;;;;;;;;;;;;;;;5081076;28;19928;-74
2021/12/23 10:12:34;;;;;;;;;;;;;;;;;;5069083;28;20348;-73
2021/12/23 10:31:22;;;;;;;;;;;;;;;;;;5079062;28;19929;-74
2021/12/23 10:37:06;;;;;;;;;;;;;;;;;;5074648;28;19932;-74
2021/12/23 10:39:35;;;;;;;;;;;;;;;;;;5077113;28;20000;-75
2021/12/23 10:42:07;;;;;;;;;;;;;;;;;;5063940;28;19927;-73
2021/12/23 10:44:37;;;;;;;;;;;;;;;;;;5078896;28;20463;-73
2021/12/23 10:47:07;;;;;;;;;;;;;;;;;;5074455;28;19933;-75
2021/12/23 10:49:52;;;;;;;;;;;;;;;;;;5079290;28;19931;-74
2021/12/23 10:52:31;;;;;;;;;;;;;;;;;;5079783;28;19943;-72
2021/12/23 10:58:10;;;;;;;;;;;;;;;;;;5075849;28;20411;-74
2021/12/23 11:00:49;;;;;;;;;;;;;;;;;;5076186;28;20047;-73
2021/12/23 11:03:33;;;;;;;;;;;;;;;;;;5077336;28;19976;-74
2021/12/23 11:06:07;;;;;;;;;;;;;;;;;;5072756;28;19928;-74
2021/12/23 11:08:47;;;;;;;;;;;;;;;;;;5054475;28;19925;-75
2021/12/23 11:32:20;;;;;;;;;;;;;;;;;;5057953;28;19967;-71
2021/12/23 11:39:46;;;;;;;;;;;;;;;;;;5047358;28;19939;-76
2021/12/23 11:42:23;;;;;;;;;;;;;;;;;;5050520;28;20300;-77
2021/12/23 11:44:53;;;;;;;;;;;;;;;;;;5057091;28;19928;-74
2021/12/23 11:47:23;;;;;;;;;;;;;;;;;;5046278;28;19936;-73
2021/12/23 11:49:57;;;;;;;;;;;;;;;;;;5058780;28;20569;-71
2021/12/23 11:52:32;;;;;;;;;;;;;;;;;;5051792;28;19939;-72
2021/12/23 11:55:07;;;;;;;;;;;;;;;;;;5054213;28;19925;-74
2021/12/23 11:57:40;;;;;;;;;;;;;;;;;;5054816;28;19930;-70
2021/12/23 12:00:21;;;;;;;;;;;;;;;;;;5052348;28;19924;-70
2021/12/23 12:02:58;;;;;;;;;;;;;;;;;;5053246;28;19926;-70
2021/12/23 12:05:34;;;;;;;;;;;;;;;;;;5042759;28;19936;-71
2021/12/23 12:08:06;;;;;;;;;;;;;;;;;;5051035;28;19940;-71
2021/12/23 12:10:36;;;;;;;;;;;;;;;;;;5042404;28;19929;-71
2021/12/23 12:13:08;;;;;;;;;;;;;;;;;;5049153;28;19925;-72
2021/12/23 12:15:42;;;;;;;;;;;;;;;;;;5057361;28;20118;-72
2021/12/23 12:18:40;;;;;;;;;;;;;;;;;;5053122;28;19929;-71
2021/12/23 12:21:11;;;;;;;;;;;;;;;;;;5054945;28;19943;-70
2021/12/23 12:23:41;;;;;;;;;;;;;;;;;;5051331;28;19928;-72
2021/12/23 12:26:10;;;;;;;;;;;;;;;;;;5051229;28;20362;-69
2021/12/23 12:28:41;;;;;;;;;;;;;;;;;;5056211;28;20498;-70
2021/12/23 12:31:08;;;;;;;;;;;;;;;;;;5055176;28;19928;-72
2021/12/23 12:33:37;;;;;;;;;;;;;;;;;;5050394;28;19928;-69
2021/12/23 12:36:07;;;;;;;;;;;;;;;;;;5053616;28;19928;-72
2021/12/23 12:38:37;;;;;;;;;;;;;;;;;;5054207;28;19925;-73
2021/12/23 12:41:05;;;;;;;;;;;;;;;;;;5051468;28;20563;-73
2021/12/23 12:43:43;;;;;;;;;;;;;;;;;;5051230;28;19937;-70
2021/12/23 12:46:17;;;;;;;;;;;;;;;;;;5049621;28;19939;-73
2021/12/23 12:48:51;;;;;;;;;;;;;;;;;;5038699;28;19933;-73
2021/12/23 12:51:21;;;;;;;;;;;;;;;;;;5053212;28;21609;-71
2021/12/23 12:53:55;;;;;;;;;;;;;;;;;;5055421;28;19971;-71
2021/12/23 12:56:24;;;;;;;;;;;;;;;;;;5055720;28;19932;-71
2021/12/23 12:58:53;;;;;;;;;;;;;;;;;;5051047;28;20301;-71
2021/12/23 13:01:22;;;;;;;;;;;;;;;;;;5055404;28;19933;-73
2021/12/23 13:03:53;;;;;;;;;;;;;;;;;;5040343;28;19928;-70
2021/12/23 13:06:21;;;;;;;;;;;;;;;;;;5053515;28;19978;-70
2021/12/23 13:08:54;;;;;;;;;;;;;;;;;;5052298;28;19928;-74
2021/12/23 13:11:24;;;;;;;;;;;;;;;;;;5074149;28;20353;-71
2021/12/23 13:14:00;;;;;;;;;;;;;;;;;;5077125;28;20502;-71
2021/12/23 13:16:30;;;;;;;;;;;;;;;;;;5085501;28;20386;-71
2021/12/23 13:19:06;;;;;;;;;;;;;;;;;;5067693;28;19939;-70
2021/12/23 13:21:36;;;;;;;;;;;;;;;;;;5070536;28;19928;-71
2021/12/23 13:24:07;;;;;;;;;;;;;;;;;;5070399;28;20343;-71
2021/12/23 13:26:38;;;;;;;;;;;;;;;;;;5075482;28;19931;-70
2021/12/23 13:29:13;;;;;;;;;;;;;;;;;;5081076;28;20378;-73
2021/12/23 13:31:42;;;;;;;;;;;;;;;;;;5081002;28;20687;-71
2021/12/23 13:34:12;;;;;;;;;;;;;;;;;;5063144;28;19924;-74
2021/12/23 13:36:40;;;;;;;;;;;;;;;;;;5081808;28;19924;-71
2021/12/23 13:39:10;;;;;;;;;;;;;;;;;;5074862;28;19928;-72
2021/12/23 13:41:39;;;;;;;;;;;;;;;;;;5062584;28;20295;-72
2021/12/23 13:44:09;;;;;;;;;;;;;;;;;;5080924;28;19989;-70
2021/12/23 13:46:38;;;;;;;;;;;;;;;;;;5081398;28;19981;-71
2021/12/23 13:49:10;;;;;;;;;;;;;;;;;;5075983;28;19929;-72
2021/12/23 13:51:41;;;;;;;;;;;;;;;;;;5075781;28;19924;-70
2021/12/23 13:54:23;;;;;;;;;;;;;;;;;;5065230;28;19928;-69
2021/12/23 13:56:53;;;;;;;;;;;;;;;;;;5080836;28;19928;-72
2021/12/23 13:59:22;;;;;;;;;;;;;;;;;;5057552;28;19992;-70
2021/12/23 14:01:52;;;;;;;;;;;;;;;;;;5057628;28;20334;-72
2021/12/23 14:04:20;;;;;;;;;;;;;;;;;;5077647;28;19928;-72
2021/12/23 14:06:49;;;;;;;;;;;;;;;;;;5066479;28;20329;-72
2021/12/23 14:09:18;;;;;;;;;;;;;;;;;;5078210;28;19936;-72
2021/12/23 14:11:49;;;;;;;;;;;;;;;;;;5077326;28;19943;-69
2021/12/23 14:14:19;;;;;;;;;;;;;;;;;;5062738;28;19942;-70
2021/12/23 14:16:49;;;;;;;;;;;;;;;;;;5072038;28;19928;-71
2021/12/23 14:19:40;;;;;;;;;;;;;;;;;;5075124;28;21117;-73
2021/12/23 14:24:57;;;;;;;;;;;;;;;;;;5080453;28;19936;-72
2021/12/23 14:27:25;;;;;;;;;;;;;;;;;;5065164;28;19935;-73
2021/12/23 14:29:56;;;;;;;;;;;;;;;;;;5063186;28;20569;-71
2021/12/23 14:32:25;;;;;;;;;;;;;;;;;;5066249;28;19939;-72
2021/12/23 14:34:53;;;;;;;;;;;;;;;;;;5062455;28;20352;-74
2021/12/23 14:37:25;;;;;;;;;;;;;;;;;;5080018;28;19924;-72
2021/12/23 14:39:56;;;;;;;;;;;;;;;;;;5070885;28;19928;-73
2021/12/23 14:42:28;;;;;;;;;;;;;;;;;;5075383;28;19938;-70
2021/12/23 14:44:56;;;;;;;;;;;;;;;;;;5062385;28;19980;-72
2021/12/23 14:47:27;;;;;;;;;;;;;;;;;;5073225;28;19984;-72
2021/12/23 14:52:43;;;;;;;;;;;;;;;;;;5080676;28;20411;-73
2021/12/23 14:55:14;;;;;;;;;;;;;;;;;;5077106;28;19954;-74
2021/12/23 14:57:44;;;;;;;;;;;;;;;;;;5069281;28;20455;-75
2021/12/23 15:00:16;;;;;;;;;;;;;;;;;;5069051;28;19933;-74
2021/12/23 15:02:46;;;;;;;;;;;;;;;;;;5080274;28;19934;-75
2021/12/23 15:05:17;;;;;;;;;;;;;;;;;;5074750;28;19932;-72
2021/12/23 15:07:59;;;;;;;;;;;;;;;;;;5071873;28;20194;-72
2021/12/23 15:10:29;;;;;;;;;;;;;;;;;;5074919;28;19978;-71
2021/12/23 15:12:59;;;;;;;;;;;;;;;;;;5080041;28;19940;-72
2021/12/23 15:15:29;;;;;;;;;;;;;;;;;;5076746;28;19932;-74
2021/12/23 15:18:16;;;;;;;;;;;;;;;;;;5072851;28;19924;-73
2021/12/23 15:20:45;;;;;;;;;;;;;;;;;;5076963;28;19928;-71
2021/12/23 15:23:16;;;;;;;;;;;;;;;;;;5068060;28;19936;-77
2021/12/23 15:25:45;;;;;;;;;;;;;;;;;;5061374;28;19932;-75
2021/12/23 15:28:15;;;;;;;;;;;;;;;;;;5073950;28;20283;-73
2021/12/23 15:30:44;;;;;;;;;;;;;;;;;;5085346;28;19966;-73
2021/12/23 15:33:44;;;;;;;;;;;;;;;;;;5076595;28;19936;-71
2021/12/23 15:36:11;;;;;;;;;;;;;;;;;;5085602;28;19989;-72
2021/12/23 15:38:40;;;;;;;;;;;;;;;;;;5058525;28;19932;-72
2021/12/23 15:41:10;;;;;;;;;;;;;;;;;;5084816;28;19908;-71
2021/12/23 15:43:40;;;;;;;;;;;;;;;;;;5078115;28;19939;-71
2021/12/23 15:46:12;;;;;;;;;;;;;;;;;;5071787;28;19925;-72
2021/12/23 15:48:44;;;;;;;;;;;;;;;;;;5077466;28;20318;-72
2021/12/23 15:51:15;;;;;;;;;;;;;;;;;;5073600;28;19932;-70
2021/12/23 15:53:45;;;;;;;;;;;;;;;;;;5076189;28;19924;-72
2021/12/23 15:56:14;;;;;;;;;;;;;;;;;;5072778;28;19956;-72
2021/12/23 15:58:45;;;;;;;;;;;;;;;;;;5074416;28;19932;-74
2021/12/23 16:01:28;;;;;;;;;;;;;;;;;;5077297;28;19942;-73
2021/12/23 16:03:59;;;;;;;;;;;;;;;;;;5074568;28;19939;-72
2021/12/23 16:09:20;;;;;;;;;;;;;;;;;;5076807;28;20346;-69
2021/12/23 16:11:52;;;;;;;;;;;;;;;;;;5073787;28;19938;-69
2021/12/23 16:14:24;;;;;;;;;;;;;;;;;;5071281;28;19932;-69
2021/12/23 16:16:54;;;;;;;;;;;;;;;;;;5076041;28;20007;-69
2021/12/23 16:19:24;;;;;;;;;;;;;;;;;;5079360;28;19932;-69
2021/12/23 16:21:55;;;;;;;;;;;;;;;;;;5076148;28;19994;-69
2021/12/23 16:24:23;;;;;;;;;;;;;;;;;;5058106;28;19994;-69
2021/12/23 16:26:52;;;;;;;;;;;;;;;;;;5079193;28;20319;-69
2021/12/23 16:29:21;;;;;;;;;;;;;;;;;;5075011;28;20384;-69
2021/12/23 16:31:51;;;;;;;;;;;;;;;;;;5077415;28;19929;-69
2021/12/23 16:34:20;;;;;;;;;;;;;;;;;;5069481;28;20025;-69
2021/12/23 16:36:49;;;;;;;;;;;;;;;;;;5076783;28;19939;-69
2021/12/23 16:39:17;;;;;;;;;;;;;;;;;;5077829;28;20354;-69
2021/12/23 16:41:44;;;;;;;;;;;;;;;;;;5076302;28;19944;-69
2021/12/23 16:44:17;;;;;;;;;;;;;;;;;;5077360;28;19936;-69
2021/12/23 16:46:44;;;;;;;;;;;;;;;;;;5075768;28;19939;-69
2021/12/23 16:49:14;;;;;;;;;;;;;;;;;;5077968;28;20085;-69
2021/12/23 16:51:47;;;;;;;;;;;;;;;;;;5076612;28;20422;-69
2021/12/23 16:54:17;;;;;;;;;;;;;;;;;;5078089;28;20567;-69
2021/12/23 16:59:33;;;;;;;;;;;;;;;;;;5077705;28;19928;-69
2021/12/23 17:02:00;;;;;;;;;;;;;;;;;;5078027;28;19928;-69
2021/12/23 17:04:30;;;;;;;;;;;;;;;;;;5084234;28;19944;-69
2021/12/23 17:06:57;;;;;;;;;;;;;;;;;;5078972;28;20274;-69
2021/12/23 17:09:26;;;;;;;;;;;;;;;;;;5083852;28;20456;-69
2021/12/23 17:11:56;;;;;;;;;;;;;;;;;;5076838;28;19934;-69
2021/12/23 17:14:26;;;;;;;;;;;;;;;;;;5082534;28;19938;-69
2021/12/23 17:16:55;;;;;;;;;;;;;;;;;;5067671;28;20110;-68
2021/12/23 17:19:24;;;;;;;;;;;;;;;;;;5079098;28;19983;-68
2021/12/23 17:21:56;;;;;;;;;;;;;;;;;;5078564;28;20353;-68
2021/12/23 17:24:33;;;;;;;;;;;;;;;;;;5078427;28;19953;-68
2021/12/23 17:27:05;;;;;;;;;;;;;;;;;;5078765;28;20316;-68
2021/12/23 17:29:34;;;;;;;;;;;;;;;;;;5080365;28;19932;-68
2021/12/23 17:32:04;;;;;;;;;;;;;;;;;;5078681;28;19928;-69
2021/12/23 17:34:31;;;;;;;;;;;;;;;;;;5077360;28;19988;-68
2021/12/23 17:37:00;;;;;;;;;;;;;;;;;;5077742;28;19923;-68
2021/12/23 17:39:35;;;;;;;;;;;;;;;;;;5080958;28;19928;-68
2021/12/23 17:42:05;;;;;;;;;;;;;;;;;;5076649;28;19932;-68
2021/12/23 17:44:34;;;;;;;;;;;;;;;;;;5060896;28;20558;-68
2021/12/23 17:47:02;;;;;;;;;;;;;;;;;;5072806;28;19982;-67
2021/12/23 17:49:32;;;;;;;;;;;;;;;;;;5068032;28;19942;-67
2021/12/23 17:52:02;;;;;;;;;;;;;;;;;;5075900;28;20373;-67
2021/12/23 17:54:30;;;;;;;;;;;;;;;;;;5080439;28;19935;-67
2021/12/23 17:56:59;;;;;;;;;;;;;;;;;;5075718;28;19974;-67
2021/12/23 17:59:28;;;;;;;;;;;;;;;;;;5073573;28;19961;-67
2021/12/23 18:01:58;;;;;;;;;;;;;;;;;;5075484;28;19936;-67
2021/12/23 18:04:27;;;;;;;;;;;;;;;;;;5067810;28;19939;-67
2021/12/23 18:06:58;;;;;;;;;;;;;;;;;;5077897;28;19935;-67
2021/12/23 18:09:28;;;;;;;;;;;;;;;;;;5079856;28;19928;-67
2021/12/23 18:11:55;;;;;;;;;;;;;;;;;;5074340;28;19928;-67
2021/12/23 18:14:24;;;;;;;;;;;;;;;;;;5077373;28;19940;-67
2021/12/23 18:16:54;;;;;;;;;;;;;;;;;;5077825;28;19933;-67
2021/12/23 18:19:24;;;;;;;;;;;;;;;;;;5077707;28;19924;-67
2021/12/23 18:21:52;;;;;;;;;;;;;;;;;;5075257;28;21208;-67
2021/12/23 18:24:22;;;;;;;;;;;;;;;;;;5075666;28;19928;-67
2021/12/23 18:26:51;;;;;;;;;;;;;;;;;;5076898;28;19985;-67
2021/12/23 18:29:19;;;;;;;;;;;;;;;;;;5075216;28;19938;-67